Time;durP1;ratioP1;P1;durP2;ratioP2;P2;SDS_P1;SDS_P2;PMS_P1;PMS_P2;Temp;Humidity;BMP_temperature;BMP_pressure;BME280_temperature;BME280_humidity;BME280_pressure;Samples;Min_cycle;Max_cycle;Signal;HPM_P1;HPM_P2
2022/01/03 00:00:16;;;;;;;17.55;2.58;;;;;;;;;;5086854;28;20081;-61
2022/01/03 00:02:43;;;;;;;20.75;2.58;;;;;;;;;;5082965;28;20411;-62
2022/01/03 00:05:10;;;;;;;33.28;2.88;;;;;;;;;;5088797;28;20040;-61
2022/01/03 00:07:39;;;;;;;33.35;3.20;;;;;;;;;;5085589;28;20049;-62
2022/01/03 00:10:06;;;;;;;20.30;3.08;;;;;;;;;;5081530;28;20048;-61
2022/01/03 00:12:32;;;;;;;28.92;3.97;;;;;;;;;;5087356;28;20051;-62
2022/01/03 00:14:59;;;;;;;25.38;3.25;;;;;;;;;;5085203;28;20407;-61
2022/01/03 00:17:25;;;;;;;29.35;3.50;;;;;;;;;;5082907;28;20047;-62
2022/01/03 00:19:51;;;;;;;30.33;3.78;;;;;;;;;;5082667;28;20192;-62
2022/01/03 00:22:18;;;;;;;26.45;4.25;;;;;;;;;;5086272;28;20116;-61
2022/01/03 00:24:46;;;;;;;30.35;3.78;;;;;;;;;;5085773;28;20202;-62
2022/01/03 00:27:15;;;;;;;35.88;4.47;;;;;;;;;;5089610;28;20197;-61
2022/01/03 00:29:43;;;;;;;24.05;3.25;;;;;;;;;;5085972;28;20111;-61
2022/01/03 00:32:10;;;;;;;25.90;4.35;;;;;;;;;;5081364;28;20483;-61
2022/01/03 00:34:37;;;;;;;29.85;3.80;;;;;;;;;;5084481;28;20032;-61
2022/01/03 00:37:05;;;;;;;32.38;4.35;;;;;;;;;;5084179;28;20036;-61
2022/01/03 00:39:32;;;;;;;32.17;5.72;;;;;;;;;;5084780;28;20036;-61
2022/01/03 00:41:58;;;;;;;29.58;4.80;;;;;;;;;;5085578;28;20051;-61
2022/01/03 00:44:25;;;;;;;34.10;5.00;;;;;;;;;;5083156;28;20052;-61
2022/01/03 00:46:53;;;;;;;31.90;4.85;;;;;;;;;;5081077;28;20456;-62
2022/01/03 00:49:19;;;;;;;31.85;4.82;;;;;;;;;;5083925;28;20044;-61
2022/01/03 00:51:45;;;;;;;38.50;5.70;;;;;;;;;;5085153;28;20068;-61
2022/01/03 00:54:12;;;;;;;44.45;5.75;;;;;;;;;;5080588;28;20089;-61
2022/01/03 00:56:43;;;;;;;30.15;4.30;;;;;;;;;;5082942;28;20043;-62
2022/01/03 00:59:17;;;;;;;36.17;5.63;;;;;;;;;;5088949;28;20051;-62
2022/01/03 01:01:46;;;;;;;27.60;4.10;;;;;;;;;;5087115;28;20048;-61
2022/01/03 01:04:13;;;;;;;40.25;5.85;;;;;;;;;;5086360;28;20129;-62
2022/01/03 01:06:40;;;;;;;39.42;4.82;;;;;;;;;;5088830;28;20501;-61
2022/01/03 01:09:07;;;;;;;43.97;6.22;;;;;;;;;;5081947;28;20424;-62
2022/01/03 01:11:34;;;;;;;43.28;5.93;;;;;;;;;;5079775;28;20040;-62
2022/01/03 01:14:02;;;;;;;28.30;4.25;;;;;;;;;;5080911;28;20044;-62
2022/01/03 01:16:31;;;;;;;42.05;6.15;;;;;;;;;;5097785;28;20131;-61
2022/01/03 01:18:57;;;;;;;53.28;6.40;;;;;;;;;;5082643;28;20036;-62
2022/01/03 01:21:25;;;;;;;42.97;4.75;;;;;;;;;;5084292;28;20072;-62
2022/01/03 01:23:52;;;;;;;48.40;7.53;;;;;;;;;;5081958;28;20036;-62
2022/01/03 01:29:04;;;;;;;34.53;5.97;;;;;;;;;;5084055;28;20498;-62
2022/01/03 01:31:33;;;;;;;38.80;5.15;;;;;;;;;;5086353;28;20036;-62
2022/01/03 01:34:00;;;;;;;39.22;5.75;;;;;;;;;;5083751;28;20036;-62
2022/01/03 01:36:27;;;;;;;31.27;5.05;;;;;;;;;;5081238;28;20044;-62
2022/01/03 01:38:56;;;;;;;40.08;5.10;;;;;;;;;;5086573;28;20500;-62
2022/01/03 01:41:23;;;;;;;33.33;5.53;;;;;;;;;;5079406;28;20474;-62
2022/01/03 01:43:49;;;;;;;42.20;5.25;;;;;;;;;;5083616;28;20032;-62
2022/01/03 01:46:17;;;;;;;34.83;5.00;;;;;;;;;;5080434;28;20184;-62
2022/01/03 01:48:45;;;;;;;34.97;4.72;;;;;;;;;;5097299;28;20139;-62
2022/01/03 01:51:13;;;;;;;34.20;5.18;;;;;;;;;;5080609;28;20040;-62
2022/01/03 01:53:41;;;;;;;28.42;4.53;;;;;;;;;;5077433;28;20048;-62
2022/01/03 01:56:12;;;;;;;47.53;6.38;;;;;;;;;;5074997;28;20956;-62
2022/01/03 01:58:43;;;;;;;31.52;5.07;;;;;;;;;;5078791;28;20040;-62
2022/01/03 02:01:13;;;;;;;32.13;4.82;;;;;;;;;;5080580;28;20055;-62
2022/01/03 02:03:47;;;;;;;43.75;4.60;;;;;;;;;;5082707;28;20040;-62
2022/01/03 02:06:21;;;;;;;35.25;4.78;;;;;;;;;;5083312;28;20119;-62
2022/01/03 02:08:59;;;;;;;34.65;5.82;;;;;;;;;;5082673;28;20115;-62
2022/01/03 02:11:32;;;;;;;33.13;5.10;;;;;;;;;;5083352;28;20051;-62
2022/01/03 02:13:59;;;;;;;30.88;4.35;;;;;;;;;;5082877;28;20136;-62
2022/01/03 02:16:26;;;;;;;25.85;5.13;;;;;;;;;;5081224;28;20419;-62
2022/01/03 02:18:52;;;;;;;41.08;5.07;;;;;;;;;;5084717;28;20051;-62
2022/01/03 02:21:19;;;;;;;33.75;4.32;;;;;;;;;;5082863;28;20094;-62
2022/01/03 02:23:46;;;;;;;38.47;4.93;;;;;;;;;;5082774;28;20074;-62
2022/01/03 02:26:12;;;;;;;39.13;6.30;;;;;;;;;;5077698;28;20040;-62
2022/01/03 02:28:38;;;;;;;36.38;5.10;;;;;;;;;;5081122;28;20088;-62
2022/01/03 02:31:05;;;;;;;33.88;5.53;;;;;;;;;;5078707;28;20480;-62
2022/01/03 02:33:32;;;;;;;35.60;5.18;;;;;;;;;;5081987;28;20044;-62
2022/01/03 02:35:59;;;;;;;40.85;6.45;;;;;;;;;;5083515;28;20052;-62
2022/01/03 02:38:25;;;;;;;34.10;5.63;;;;;;;;;;5082063;28;20086;-62
2022/01/03 02:40:51;;;;;;;38.72;7.68;;;;;;;;;;5079014;28;20044;-62
2022/01/03 02:43:17;;;;;;;41.15;5.60;;;;;;;;;;5081720;28;20403;-62
2022/01/03 02:45:44;;;;;;;38.33;5.22;;;;;;;;;;5082044;28;20044;-63
2022/01/03 02:48:12;;;;;;;38.75;6.45;;;;;;;;;;5081899;28;20047;-62
2022/01/03 02:50:39;;;;;;;44.08;6.47;;;;;;;;;;5082083;28;20142;-62
2022/01/03 02:53:05;;;;;;;34.30;6.38;;;;;;;;;;5079343;28;20044;-62
2022/01/03 02:55:32;;;;;;;45.92;6.55;;;;;;;;;;5078202;28;20051;-62
2022/01/03 02:58:06;;;;;;;41.13;5.07;;;;;;;;;;5079370;28;20121;-62
2022/01/03 03:00:32;;;;;;;;;;;;;;;;;;5077144;28;20077;-62
2022/01/03 03:02:58;;;;;;;36.72;5.63;;;;;;;;;;5090869;28;19928;-61
2022/01/03 03:05:24;;;;;;;41.90;7.93;;;;;;;;;;5076187;28;20043;-62
2022/01/03 03:07:53;;;;;;;40.83;5.47;;;;;;;;;;5072766;28;20444;-62
2022/01/03 03:10:20;;;;;;;45.75;6.65;;;;;;;;;;5077051;28;20711;-62
2022/01/03 03:12:47;;;;;;;36.63;6.13;;;;;;;;;;5079713;28;20037;-62
2022/01/03 03:15:14;;;;;;;43.50;6.22;;;;;;;;;;5076953;28;20526;-62
2022/01/03 03:17:41;;;;;;;46.97;5.97;;;;;;;;;;5075443;28;20518;-62
2022/01/03 03:20:09;;;;;;;41.60;6.00;;;;;;;;;;5079313;28;20051;-62
2022/01/03 03:22:36;;;;;;;45.85;6.50;;;;;;;;;;5077466;28;20052;-62
2022/01/03 03:25:08;;;;;;;41.35;6.00;;;;;;;;;;5080971;28;20051;-62
2022/01/03 03:27:37;;;;;;;45.35;5.50;;;;;;;;;;5078713;28;20488;-62
2022/01/03 03:30:04;;;;;;;39.38;9.48;;;;;;;;;;5077424;28;20048;-62
2022/01/03 03:32:31;;;;;;;38.88;6.97;;;;;;;;;;5073772;28;20105;-62
2022/01/03 03:34:57;;;;;;;43.80;6.80;;;;;;;;;;5073530;28;21289;-62
2022/01/03 03:37:23;;;;;;;42.40;7.03;;;;;;;;;;5075354;28;20821;-62
2022/01/03 03:39:50;;;;;;;41.85;6.85;;;;;;;;;;5078734;28;20044;-62
2022/01/03 03:42:16;;;;;;;46.75;6.07;;;;;;;;;;5080729;28;20055;-62
2022/01/03 03:44:42;;;;;;;39.58;5.68;;;;;;;;;;5075566;28;20183;-62
2022/01/03 03:47:09;;;;;;;38.90;5.78;;;;;;;;;;5080178;28;20134;-62
2022/01/03 03:49:35;;;;;;;35.22;6.07;;;;;;;;;;5079560;28;20047;-62
2022/01/03 03:52:02;;;;;;;39.20;5.93;;;;;;;;;;5074650;28;20109;-62
2022/01/03 03:54:29;;;;;;;41.13;7.05;;;;;;;;;;5080470;28;20070;-62
2022/01/03 03:56:57;;;;;;;36.88;6.43;;;;;;;;;;5081119;28;20059;-62
2022/01/03 03:59:23;;;;;;;39.50;6.13;;;;;;;;;;5078413;28;20392;-62
2022/01/03 04:01:49;;;;;;;37.63;5.82;;;;;;;;;;5076894;28;20032;-62
2022/01/03 04:04:16;;;;;;;43.05;6.07;;;;;;;;;;5075011;28;20157;-61
2022/01/03 04:06:42;;;;;;;36.90;6.05;;;;;;;;;;5076102;28;20125;-62
2022/01/03 04:09:08;;;;;;;37.53;5.03;;;;;;;;;;5073331;28;20032;-62
2022/01/03 04:11:34;;;;;;;44.33;7.50;;;;;;;;;;5077081;28;20071;-63
2022/01/03 04:14:01;;;;;;;40.42;5.63;;;;;;;;;;5076499;28;20048;-62
2022/01/03 04:16:27;;;;;;;36.70;5.65;;;;;;;;;;5077242;28;20046;-62
2022/01/03 04:18:53;;;;;;;42.55;7.15;;;;;;;;;;5078745;28;20067;-62
2022/01/03 04:21:19;;;;;;;44.80;6.15;;;;;;;;;;5080562;28;20080;-62
2022/01/03 04:23:45;;;;;;;41.55;6.25;;;;;;;;;;5077905;28;20102;-61
2022/01/03 04:26:12;;;;;;;36.80;6.28;;;;;;;;;;5076994;28;20044;-62
2022/01/03 04:28:38;;;;;;;42.47;5.22;;;;;;;;;;5077150;28;20040;-62
2022/01/03 04:31:05;;;;;;;37.58;5.55;;;;;;;;;;5079492;28;20044;-62
2022/01/03 04:33:31;;;;;;;46.30;6.38;;;;;;;;;;5079186;28;20115;-62
2022/01/03 04:35:58;;;;;;;39.17;5.25;;;;;;;;;;5080297;28;20126;-62
2022/01/03 04:38:24;;;;;;;44.63;6.75;;;;;;;;;;5077201;28;20174;-61
2022/01/03 04:40:50;;;;;;;42.10;6.60;;;;;;;;;;5080879;28;20047;-62
2022/01/03 04:43:16;;;;;;;47.75;7.30;;;;;;;;;;5082522;28;20048;-62
2022/01/03 04:45:42;;;;;;;48.85;6.50;;;;;;;;;;5077066;28;20072;-62
2022/01/03 04:48:08;;;;;;;42.05;7.00;;;;;;;;;;5077409;28;20101;-62
2022/01/03 04:50:35;;;;;;;48.72;8.07;;;;;;;;;;5079642;28;20060;-61
2022/01/03 04:53:01;;;;;;;29.33;6.00;;;;;;;;;;5083215;28;20395;-62
2022/01/03 04:55:27;;;;;;;54.10;6.25;;;;;;;;;;5088028;28;22000;-62
2022/01/03 04:57:53;;;;;;;41.22;6.53;;;;;;;;;;5088383;28;20052;-62
2022/01/03 05:00:19;;;;;;;36.63;5.00;;;;;;;;;;5083449;28;20059;-62
2022/01/03 05:02:46;;;;;;;43.45;6.57;;;;;;;;;;5077860;28;20044;-62
2022/01/03 05:05:13;;;;;;;38.40;5.07;;;;;;;;;;5080464;28;20074;-62
2022/01/03 05:07:39;;;;;;;36.92;6.00;;;;;;;;;;5088744;28;20483;-62
2022/01/03 05:10:06;;;;;;;46.45;6.93;;;;;;;;;;5083294;28;20048;-62
2022/01/03 05:12:32;;;;;;;47.47;8.35;;;;;;;;;;5082482;28;20055;-61
2022/01/03 05:14:58;;;;;;;59.75;8.85;;;;;;;;;;5086826;28;20395;-62
2022/01/03 05:17:25;;;;;;;53.80;6.30;;;;;;;;;;5083949;28;20087;-62
2022/01/03 05:19:51;;;;;;;47.95;8.63;;;;;;;;;;5083335;28;20055;-62
2022/01/03 05:22:17;;;;;;;40.17;6.13;;;;;;;;;;5082208;28;20567;-62
2022/01/03 05:24:43;;;;;;;50.58;6.72;;;;;;;;;;5083745;28;20040;-62
2022/01/03 05:27:09;;;;;;;46.42;7.07;;;;;;;;;;5083872;28;20060;-62
2022/01/03 05:29:36;;;;;;;36.05;7.38;;;;;;;;;;5083797;28;20091;-61
2022/01/03 05:32:02;;;;;;;38.45;7.32;;;;;;;;;;5084204;28;20108;-62
2022/01/03 05:34:28;;;;;;;40.85;6.75;;;;;;;;;;5080581;28;20043;-62
2022/01/03 05:36:54;;;;;;;37.53;5.80;;;;;;;;;;5080177;28;20085;-61
2022/01/03 05:39:20;;;;;;;43.03;7.60;;;;;;;;;;5083497;28;20032;-62
2022/01/03 05:41:46;;;;;;;47.38;7.75;;;;;;;;;;5079723;28;20090;-62
2022/01/03 05:44:12;;;;;;;51.60;7.53;;;;;;;;;;5083199;28;20036;-62
2022/01/03 05:46:39;;;;;;;45.22;7.88;;;;;;;;;;5078082;28;21633;-62
2022/01/03 05:49:07;;;;;;;44.30;7.43;;;;;;;;;;5079387;28;20091;-62
2022/01/03 05:51:33;;;;;;;42.40;5.85;;;;;;;;;;5079499;28;20040;-61
2022/01/03 05:53:59;;;;;;;37.40;7.35;;;;;;;;;;5077545;28;20040;-62
2022/01/03 05:56:25;;;;;;;50.33;7.28;;;;;;;;;;5077935;28;20570;-61
2022/01/03 05:58:51;;;;;;;51.47;5.88;;;;;;;;;;5077542;28;20759;-62
2022/01/03 06:01:20;;;;;;;35.60;6.43;;;;;;;;;;5079562;28;20088;-61
2022/01/03 06:03:46;;;;;;;43.55;7.15;;;;;;;;;;5082790;28;20040;-62
2022/01/03 06:08:39;;;;;;;49.15;7.20;;;;;;;;;;5082344;28;20134;-61
2022/01/03 06:11:05;;;;;;;48.35;6.65;;;;;;;;;;5083625;28;20064;-62
2022/01/03 06:13:31;;;;;;;38.30;7.00;;;;;;;;;;5082268;28;20115;-63
2022/01/03 06:15:58;;;;;;;43.88;7.78;;;;;;;;;;5073528;28;20048;-62
2022/01/03 06:18:24;;;;;;;46.38;7.03;;;;;;;;;;5076013;28;20040;-62
2022/01/03 06:20:51;;;;;;;44.70;7.13;;;;;;;;;;5072019;28;20878;-62
2022/01/03 06:23:19;;;;;;;60.55;6.80;;;;;;;;;;5077796;28;20041;-62
2022/01/03 06:25:45;;;;;;;44.63;7.18;;;;;;;;;;5076402;28;20032;-62
2022/01/03 06:28:12;;;;;;;53.33;8.48;;;;;;;;;;5075069;28;20987;-61
2022/01/03 06:30:39;;;;;;;34.95;6.75;;;;;;;;;;5075555;28;20041;-61
2022/01/03 06:33:05;;;;;;;43.47;6.40;;;;;;;;;;5074857;28;20125;-62
2022/01/03 06:35:32;;;;;;;38.55;6.22;;;;;;;;;;5076574;28;20522;-62
2022/01/03 06:37:58;;;;;;;53.05;8.15;;;;;;;;;;5077277;28;20036;-61
2022/01/03 06:40:25;;;;;;;44.13;7.15;;;;;;;;;;5075956;28;20040;-62
2022/01/03 06:42:52;;;;;;;54.03;6.70;;;;;;;;;;5078635;28;20044;-62
2022/01/03 06:45:18;;;;;;;48.28;6.60;;;;;;;;;;5075856;28;20059;-62
2022/01/03 06:47:44;;;;;;;51.42;7.18;;;;;;;;;;5080154;28;20055;-62
2022/01/03 06:50:11;;;;;;;54.08;7.13;;;;;;;;;;5073408;28;20560;-62
2022/01/03 06:52:37;;;;;;;38.80;6.57;;;;;;;;;;5082795;28;20134;-62
2022/01/03 06:55:04;;;;;;;53.80;7.25;;;;;;;;;;5085892;28;20075;-62
2022/01/03 06:57:31;;;;;;;49.55;8.57;;;;;;;;;;5080906;28;20055;-62
2022/01/03 06:59:57;;;;;;;41.22;6.63;;;;;;;;;;5082720;28;20139;-62
2022/01/03 07:02:24;;;;;;;46.38;7.30;;;;;;;;;;5083270;28;20036;-61
2022/01/03 07:04:50;;;;;;;53.92;8.02;;;;;;;;;;5080155;28;20123;-62
2022/01/03 07:07:16;;;;;;;42.42;6.18;;;;;;;;;;5081686;28;20086;-62
2022/01/03 07:09:42;;;;;;;60.95;9.45;;;;;;;;;;5084014;28;20060;-62
2022/01/03 07:12:11;;;;;;;48.10;9.95;;;;;;;;;;5083908;28;20110;-61
2022/01/03 07:19:51;;;;;;;53.70;8.65;;;;;;;;;;5077868;28;20175;-63
2022/01/03 07:22:17;;;;;;;45.50;6.32;;;;;;;;;;5079446;28;20040;-62
2022/01/03 07:24:44;;;;;;;51.25;8.23;;;;;;;;;;5079665;28;20048;-63
2022/01/03 07:27:11;;;;;;;46.90;6.65;;;;;;;;;;5072817;28;20120;-62
2022/01/03 07:29:37;;;;;;;52.25;7.78;;;;;;;;;;5077043;28;20040;-62
2022/01/03 07:32:03;;;;;;;38.17;5.97;;;;;;;;;;5080463;28;20044;-62
2022/01/03 07:34:30;;;;;;;43.88;6.57;;;;;;;;;;5075321;28;20044;-62
2022/01/03 07:36:56;;;;;;;41.30;6.60;;;;;;;;;;5077108;28;20055;-61
2022/01/03 07:39:22;;;;;;;44.58;7.10;;;;;;;;;;5081931;28;20036;-62
2022/01/03 07:41:48;;;;;;;50.17;8.40;;;;;;;;;;5078657;28;21441;-63
2022/01/03 07:44:15;;;;;;;43.17;6.32;;;;;;;;;;5079905;28;20047;-62
2022/01/03 07:46:41;;;;;;;46.55;7.15;;;;;;;;;;5077945;28;20108;-62
2022/01/03 07:49:07;;;;;;;44.50;5.10;;;;;;;;;;5080064;28;20052;-62
2022/01/03 07:51:33;;;;;;;51.03;8.85;;;;;;;;;;5079280;28;20048;-62
2022/01/03 07:53:59;;;;;;;45.60;7.25;;;;;;;;;;5078330;28;20124;-62
2022/01/03 07:56:26;;;;;;;56.53;7.90;;;;;;;;;;5084084;28;20040;-62
2022/01/03 07:58:52;;;;;;;48.40;5.55;;;;;;;;;;5089067;28;20082;-63
2022/01/03 08:01:18;;;;;;;53.72;8.70;;;;;;;;;;5084231;28;20387;-62
2022/01/03 08:03:44;;;;;;;53.80;7.88;;;;;;;;;;5084582;28;20052;-62
2022/01/03 08:06:11;;;;;;;42.42;7.55;;;;;;;;;;5079652;28;20044;-66
2022/01/03 08:08:37;;;;;;;54.85;7.47;;;;;;;;;;5080895;28;20044;-62
2022/01/03 08:11:04;;;;;;;50.25;6.40;;;;;;;;;;5081256;28;20059;-62
2022/01/03 08:13:30;;;;;;;55.03;6.63;;;;;;;;;;5079299;28;20044;-62
2022/01/03 08:15:56;;;;;;;50.92;6.47;;;;;;;;;;5083845;28;20048;-63
2022/01/03 08:18:22;;;;;;;47.63;7.93;;;;;;;;;;5082716;28;20801;-63
2022/01/03 08:20:51;;;;;;;51.00;6.05;;;;;;;;;;5083396;28;20055;-63
2022/01/03 08:23:17;;;;;;;50.97;8.48;;;;;;;;;;5082891;28;20507;-64
2022/01/03 08:25:43;;;;;;;51.13;7.80;;;;;;;;;;5082796;28;20044;-62
2022/01/03 08:28:10;;;;;;;40.63;7.80;;;;;;;;;;5086656;28;20032;-62
2022/01/03 08:30:36;;;;;;;40.40;6.63;;;;;;;;;;5080844;28;20064;-62
2022/01/03 08:33:04;;;;;;;47.92;6.80;;;;;;;;;;5085578;28;20124;-62
2022/01/03 08:35:30;;;;;;;47.35;7.95;;;;;;;;;;5084790;28;20052;-61
2022/01/03 08:37:57;;;;;;;56.58;7.28;;;;;;;;;;5081222;28;20154;-62
2022/01/03 08:40:23;;;;;;;44.53;7.95;;;;;;;;;;5080950;28;20036;-62
2022/01/03 08:42:51;;;;;;;46.95;6.45;;;;;;;;;;5083205;28;20040;-62
2022/01/03 08:45:17;;;;;;;41.92;6.70;;;;;;;;;;5080871;28;20054;-62
2022/01/03 08:47:43;;;;;;;48.15;6.40;;;;;;;;;;5081054;28;20439;-64
2022/01/03 08:50:10;;;;;;;47.92;6.63;;;;;;;;;;5080439;28;20090;-62
2022/01/03 08:52:36;;;;;;;41.50;6.95;;;;;;;;;;5083538;28;20052;-62
2022/01/03 08:55:03;;;;;;;42.95;6.75;;;;;;;;;;5085308;28;20123;-62
2022/01/03 08:57:29;;;;;;;53.30;6.55;;;;;;;;;;5080404;28;20051;-62
2022/01/03 08:59:56;;;;;;;59.70;8.80;;;;;;;;;;5079892;28;20051;-61
2022/01/03 09:02:22;;;;;;;35.72;6.72;;;;;;;;;;5079580;28;20150;-62
2022/01/03 09:04:48;;;;;;;43.58;6.63;;;;;;;;;;5081192;28;20122;-62
2022/01/03 09:07:15;;;;;;;64.75;8.50;;;;;;;;;;5082288;28;20044;-62
2022/01/03 09:09:41;;;;;;;47.40;6.65;;;;;;;;;;5085221;28;20230;-62
2022/01/03 09:12:07;;;;;;;50.13;6.40;;;;;;;;;;5084676;28;20145;-62
2022/01/03 09:14:34;;;;;;;51.80;6.63;;;;;;;;;;5083829;28;20039;-62
2022/01/03 09:17:01;;;;;;;34.47;6.78;;;;;;;;;;5081109;28;20511;-62
2022/01/03 09:19:27;;;;;;;44.50;7.68;;;;;;;;;;5081307;28;20072;-63
2022/01/03 09:22:10;;;;;;;34.95;5.60;;;;;;;;;;5084138;28;20441;-62
2022/01/03 09:24:51;;;;;;;50.95;8.65;;;;;;;;;;5081586;28;20036;-62
2022/01/03 09:30:03;;;;;;;43.10;7.93;;;;;;;;;;5076510;28;20044;-63
2022/01/03 09:32:29;;;;;;;40.03;6.38;;;;;;;;;;5075273;28;20935;-63
2022/01/03 09:34:57;;;;;;;46.08;6.50;;;;;;;;;;5082770;28;20122;-62
2022/01/03 09:37:23;;;;;;;38.38;6.03;;;;;;;;;;5092330;28;20106;-62
2022/01/03 09:39:50;;;;;;;45.72;6.13;;;;;;;;;;5092686;28;20443;-62
2022/01/03 09:42:22;;;;;;;46.65;6.78;;;;;;;;;;5092775;28;20527;-62
2022/01/03 09:44:49;;;;;;;37.75;6.78;;;;;;;;;;5097311;28;20051;-63
2022/01/03 09:47:17;;;;;;;37.45;6.15;;;;;;;;;;5089981;28;20047;-62
2022/01/03 09:49:43;;;;;;;40.20;6.53;;;;;;;;;;5097326;28;20046;-63
2022/01/03 09:52:09;;;;;;;39.22;6.15;;;;;;;;;;5096582;28;20112;-62
2022/01/03 09:54:36;;;;;;;42.95;6.07;;;;;;;;;;5091744;28;20032;-62
2022/01/03 09:57:04;;;;;;;39.85;6.53;;;;;;;;;;5093046;28;20040;-62
2022/01/03 09:59:30;;;;;;;40.33;6.93;;;;;;;;;;5093490;28;20070;-62
2022/01/03 10:01:58;;;;;;;42.67;7.00;;;;;;;;;;5092081;28;20040;-63
2022/01/03 10:04:25;;;;;;;35.17;5.65;;;;;;;;;;5096918;28;20111;-62
2022/01/03 10:06:51;;;;;;;37.00;8.13;;;;;;;;;;5091708;28;20046;-62
2022/01/03 10:09:19;;;;;;;39.05;6.45;;;;;;;;;;5090931;28;20101;-62
2022/01/03 10:11:46;;;;;;;41.08;6.72;;;;;;;;;;5093149;28;20855;-63
2022/01/03 10:14:12;;;;;;;36.97;5.35;;;;;;;;;;5089230;28;20050;-62
2022/01/03 10:16:39;;;;;;;29.15;6.53;;;;;;;;;;5089773;28;20065;-62
2022/01/03 10:19:05;;;;;;;40.67;6.18;;;;;;;;;;5090562;28;20111;-62
2022/01/03 10:21:42;;;;;;;56.53;7.82;;;;;;;;;;5092112;28;20097;-63
2022/01/03 10:24:09;;;;;;;34.95;5.72;;;;;;;;;;5091344;28;20067;-63
2022/01/03 10:26:37;;;;;;;40.42;7.18;;;;;;;;;;5093635;28;20043;-62
2022/01/03 10:29:11;;;;;;;33.63;5.18;;;;;;;;;;5091183;28;20036;-62
2022/01/03 10:31:40;;;;;;;35.00;6.00;;;;;;;;;;5092808;28;20142;-62
2022/01/03 10:34:07;;;;;;;31.48;5.80;;;;;;;;;;5090714;28;20101;-62
2022/01/03 10:36:35;;;;;;;38.15;6.05;;;;;;;;;;5091364;28;20078;-62
2022/01/03 10:39:12;;;;;;;36.85;7.53;;;;;;;;;;5092250;28;20487;-62
2022/01/03 10:41:38;;;;;;;29.88;5.80;;;;;;;;;;5091571;28;20050;-62
2022/01/03 10:44:04;;;;;;;40.33;5.65;;;;;;;;;;5090808;28;20253;-62
2022/01/03 10:46:32;;;;;;;37.35;6.70;;;;;;;;;;5097158;28;20046;-62
2022/01/03 10:49:07;;;;;;;36.67;6.00;;;;;;;;;;5091776;28;20384;-62
2022/01/03 10:51:33;;;;;;;29.73;6.15;;;;;;;;;;5090366;28;20044;-62
2022/01/03 10:53:59;;;;;;;36.45;5.97;;;;;;;;;;5090237;28;20480;-62
2022/01/03 10:56:29;;;;;;;35.88;6.05;;;;;;;;;;5093055;28;20040;-62
2022/01/03 10:58:58;;;;;;;32.13;4.85;;;;;;;;;;5092095;28;20067;-62
2022/01/03 11:01:25;;;;;;;37.80;6.35;;;;;;;;;;5092163;28;20390;-62
2022/01/03 11:03:53;;;;;;;32.15;4.68;;;;;;;;;;5093457;28;20110;-63
2022/01/03 11:06:24;;;;;;;33.97;6.10;;;;;;;;;;5090651;28;20044;-62
2022/01/03 11:11:36;;;;;;;34.55;5.50;;;;;;;;;;5088837;28;20135;-62
2022/01/03 11:14:03;;;;;;;34.65;6.25;;;;;;;;;;5090928;28;20472;-62
2022/01/03 11:16:33;;;;;;;36.33;5.53;;;;;;;;;;5094109;28;20448;-62
2022/01/03 11:19:00;;;;;;;43.97;6.38;;;;;;;;;;5097621;28;20040;-62
2022/01/03 11:21:26;;;;;;;34.88;6.85;;;;;;;;;;5098212;28;20036;-62
2022/01/03 11:23:59;;;;;;;35.28;5.80;;;;;;;;;;5094358;28;21763;-63
2022/01/03 11:26:26;;;;;;;41.30;8.52;;;;;;;;;;5088595;28;20044;-62
2022/01/03 11:28:53;;;;;;;32.75;5.60;;;;;;;;;;5097480;28;20032;-61
2022/01/03 11:31:21;;;;;;;31.10;5.80;;;;;;;;;;5097164;28;20074;-62
2022/01/03 11:33:49;;;;;;;45.38;7.10;;;;;;;;;;5096890;28;20097;-63
2022/01/03 11:36:17;;;;;;;31.48;6.55;;;;;;;;;;5098106;28;20534;-62
2022/01/03 11:38:45;;;;;;;27.90;4.82;;;;;;;;;;5078131;28;20764;-63
2022/01/03 11:41:11;;;;;;;36.63;6.13;;;;;;;;;;5098353;28;20036;-62
2022/01/03 11:43:38;;;;;;;41.60;5.90;;;;;;;;;;5101956;28;20377;-63
2022/01/03 11:46:04;;;;;;;34.58;5.75;;;;;;;;;;5094592;28;20387;-63
2022/01/03 11:48:31;;;;;;;27.15;4.95;;;;;;;;;;5084582;28;20411;-62
2022/01/03 11:50:58;;;;;;;26.75;5.05;;;;;;;;;;5084991;28;20463;-63
2022/01/03 11:53:25;;;;;;;29.35;5.00;;;;;;;;;;5083280;28;20491;-62
2022/01/03 11:55:52;;;;;;;32.65;5.22;;;;;;;;;;5081562;28;20051;-62
2022/01/03 11:58:47;;;;;;;34.20;5.88;;;;;;;;;;5086135;28;20040;-62
2022/01/03 12:03:59;;;;;;;33.85;5.40;;;;;;;;;;5097307;28;20040;-63
2022/01/03 12:06:27;;;;;;;39.63;5.65;;;;;;;;;;5094161;28;20387;-62
2022/01/03 12:08:54;;;;;;;36.15;6.03;;;;;;;;;;5095232;28;20032;-62
2022/01/03 12:11:22;;;;;;;26.77;5.18;;;;;;;;;;5088052;28;20458;-63
2022/01/03 12:13:51;;;;;;;36.50;5.28;;;;;;;;;;5087634;28;20043;-63
2022/01/03 12:16:18;;;;;;;31.33;5.40;;;;;;;;;;5090067;28;20044;-63
2022/01/03 12:18:56;;;;;;;32.65;6.07;;;;;;;;;;5089896;28;20671;-62
2022/01/03 12:21:41;;;;;;;40.03;6.72;;;;;;;;;;5088043;28;20044;-62
2022/01/03 12:24:28;;;;;;;28.55;5.22;;;;;;;;;;5090033;28;20056;-63
2022/01/03 12:27:24;;;;;;;41.20;7.18;;;;;;;;;;5091513;28;20506;-62
2022/01/03 12:29:50;;;;;;;35.65;6.20;;;;;;;;;;5091597;28;20040;-64
2022/01/03 12:32:17;;;;;;;28.13;4.90;;;;;;;;;;5094059;28;20089;-63
2022/01/03 12:34:43;;;;;;;38.47;6.25;;;;;;;;;;5094238;28;20341;-63
2022/01/03 12:37:15;;;;;;;34.53;5.97;;;;;;;;;;5095859;28;20475;-63
2022/01/03 12:40:18;;;;;;;33.47;6.28;;;;;;;;;;5092946;28;20063;-63
2022/01/03 12:42:52;;;;;;;37.35;7.10;;;;;;;;;;5096827;28;20059;-64
2022/01/03 12:45:28;;;;;;;37.70;6.03;;;;;;;;;;5095613;28;20111;-63
2022/01/03 12:47:55;;;;;;;35.60;6.53;;;;;;;;;;5090931;28;20525;-63
2022/01/03 12:50:25;;;;;;;41.40;6.90;;;;;;;;;;5093022;28;20059;-63
2022/01/03 12:52:54;;;;;;;36.33;5.80;;;;;;;;;;5099491;28;20048;-62
2022/01/03 12:55:39;;;;;;;43.65;6.65;;;;;;;;;;5093552;28;20040;-62
2022/01/03 12:58:28;;;;;;;33.35;5.05;;;;;;;;;;5093287;28;20524;-62
2022/01/03 13:00:55;;;;;;;36.30;6.45;;;;;;;;;;5091406;28;20096;-62
2022/01/03 13:03:41;;;;;;;35.00;5.82;;;;;;;;;;5098473;28;20539;-62
2022/01/03 13:06:15;;;;;;;34.72;6.63;;;;;;;;;;5098448;28;20048;-62
2022/01/03 13:08:48;;;;;;;32.70;5.55;;;;;;;;;;5091809;28;20044;-62
2022/01/03 13:11:15;;;;;;;29.75;6.07;;;;;;;;;;5093256;28;20190;-62
2022/01/03 13:13:43;;;;;;;28.50;5.72;;;;;;;;;;5094472;28;20079;-62
2022/01/03 13:16:18;;;;;;;31.27;6.80;;;;;;;;;;5096645;28;20756;-62
2022/01/03 13:18:46;;;;;;;30.30;5.85;;;;;;;;;;5088524;28;20036;-62
2022/01/03 13:21:14;;;;;;;29.42;5.65;;;;;;;;;;5099122;28;20072;-62
2022/01/03 13:23:40;;;;;;;34.20;5.82;;;;;;;;;;5095473;28;20126;-62
2022/01/03 13:26:06;;;;;;;32.38;6.25;;;;;;;;;;5098293;28;20039;-62
2022/01/03 13:28:44;;;;;;;37.90;6.55;;;;;;;;;;5097293;28;20040;-62
2022/01/03 13:31:10;;;;;;;38.80;5.72;;;;;;;;;;5096275;28;20047;-61
2022/01/03 13:33:36;;;;;;;39.15;5.78;;;;;;;;;;5101005;28;20518;-62
2022/01/03 13:36:04;;;;;;;38.47;6.22;;;;;;;;;;5097800;28;20035;-62
2022/01/03 13:38:30;;;;;;;32.72;5.95;;;;;;;;;;5092277;28;20067;-62
2022/01/03 13:41:14;;;;;;;35.85;6.63;;;;;;;;;;5092373;28;20044;-62
2022/01/03 13:43:46;;;;;;;32.25;5.28;;;;;;;;;;5093842;28;20046;-62
2022/01/03 13:49:12;;;;;;;36.67;7.35;;;;;;;;;;5093644;28;20139;-62
2022/01/03 13:51:44;;;;;;;43.58;6.60;;;;;;;;;;5092902;28;20132;-62
2022/01/03 13:54:20;;;;;;;32.28;5.25;;;;;;;;;;5091510;28;20081;-62
2022/01/03 13:56:46;;;;;;;47.13;6.30;;;;;;;;;;5092107;28;20048;-62
2022/01/03 13:59:13;;;;;;;37.25;6.00;;;;;;;;;;5091578;28;20345;-62
2022/01/03 14:01:39;;;;;;;33.30;5.85;;;;;;;;;;5091899;28;20067;-62
2022/01/03 14:04:06;;;;;;;39.20;6.45;;;;;;;;;;5087763;28;20102;-62
2022/01/03 14:06:32;;;;;;;35.75;6.97;;;;;;;;;;5077391;28;20054;-62
2022/01/03 14:08:58;;;;;;;44.60;6.20;;;;;;;;;;5094790;28;20064;-62
2022/01/03 14:11:26;;;;;;;32.00;6.95;;;;;;;;;;5093604;28;20509;-62
2022/01/03 14:13:53;;;;;;;39.42;8.00;;;;;;;;;;5091744;28;20051;-62
2022/01/03 14:16:22;;;;;;;37.50;6.30;;;;;;;;;;5093690;28;20047;-62
2022/01/03 14:18:51;;;;;;;30.67;5.85;;;;;;;;;;5092385;28;20052;-61
2022/01/03 14:21:19;;;;;;;44.20;7.28;;;;;;;;;;5091837;28;20040;-62
2022/01/03 14:23:47;;;;;;;30.83;5.97;;;;;;;;;;5092997;28;20047;-62
2022/01/03 14:26:14;;;;;;;47.42;7.38;;;;;;;;;;5092849;28;20498;-62
2022/01/03 14:28:40;;;;;;;32.38;5.35;;;;;;;;;;5089318;28;20051;-62
2022/01/03 14:31:08;;;;;;;50.95;7.93;;;;;;;;;;5091653;28;20086;-62
2022/01/03 14:33:37;;;;;;;37.85;7.13;;;;;;;;;;5088732;28;20471;-62
2022/01/03 14:36:14;;;;;;;28.95;5.95;;;;;;;;;;5093310;28;20035;-62
2022/01/03 14:38:41;;;;;;;35.53;5.63;;;;;;;;;;5095960;28;20067;-62
2022/01/03 14:41:20;;;;;;;38.20;5.82;;;;;;;;;;5092652;28;20047;-62
2022/01/03 14:43:55;;;;;;;42.33;6.50;;;;;;;;;;5093950;28;20059;-62
2022/01/03 14:46:28;;;;;;;49.22;6.50;;;;;;;;;;5090531;28;20502;-62
2022/01/03 14:48:54;;;;;;;42.97;6.18;;;;;;;;;;5101503;28;20503;-63
2022/01/03 14:51:21;;;;;;;46.20;6.88;;;;;;;;;;5096442;28;20052;-62
2022/01/03 14:53:47;;;;;;;39.00;7.28;;;;;;;;;;5080906;28;20043;-62
2022/01/03 14:56:26;;;;;;;45.28;6.63;;;;;;;;;;5078458;28;20059;-62